sensor_id;sensor_type;location;lat;lon;timestamp;P1;durP1;ratioP1;P2;durP2;ratioP2
6513;SDS011;3290;47.716;9.070;2023-08-30T00:00:10;18.40;;;12.63;;
6513;SDS011;3290;47.716;9.070;2023-08-30T00:02:36;18.07;;;12.93;;
6513;SDS011;3290;47.716;9.070;2023-08-30T00:05:02;18.37;;;13.73;;
6513;SDS011;3290;47.716;9.070;2023-08-30T00:07:28;22.83;;;13.43;;
6513;SDS011;3290;47.716;9.070;2023-08-30T00:09:54;17.80;;;13.77;;
6513;SDS011;3290;47.716;9.070;2023-08-30T00:12:19;23.23;;;13.50;;
6513;SDS011;3290;47.716;9.070;2023-08-30T00:14:44;19.17;;;14.00;;
6513;SDS011;3290;47.716;9.070;2023-08-30T00:17:10;19.57;;;14.43;;
6513;SDS011;3290;47.716;9.070;2023-08-30T00:19:35;19.57;;;13.30;;
6513;SDS011;3290;47.716;9.070;2023-08-30T00:22:01;21.20;;;13.73;;
6513;SDS011;3290;47.716;9.070;2023-08-30T00:24:26;18.60;;;12.77;;
6513;SDS011;3290;47.716;9.070;2023-08-30T00:26:53;17.87;;;14.23;;
6513;SDS011;3290;47.716;9.070;2023-08-30T00:29:18;19.83;;;12.87;;
6513;SDS011;3290;47.716;9.070;2023-08-30T00:31:44;20.90;;;13.83;;
6513;SDS011;3290;47.716;9.070;2023-08-30T00:34:09;17.83;;;13.57;;
6513;SDS011;3290;47.716;9.070;2023-08-30T00:36:34;20.20;;;14.33;;
6513;SDS011;3290;47.716;9.070;2023-08-30T00:39:00;22.23;;;14.70;;
6513;SDS011;3290;47.716;9.070;2023-08-30T00:41:25;25.30;;;14.80;;
6513;SDS011;3290;47.716;9.070;2023-08-30T00:43:50;19.80;;;13.83;;
6513;SDS011;3290;47.716;9.070;2023-08-30T00:46:16;22.00;;;14.50;;
6513;SDS011;3290;47.716;9.070;2023-08-30T00:48:41;24.77;;;14.43;;
6513;SDS011;3290;47.716;9.070;2023-08-30T00:51:07;19.90;;;14.00;;
6513;SDS011;3290;47.716;9.070;2023-08-30T00:53:33;21.90;;;13.77;;
6513;SDS011;3290;47.716;9.070;2023-08-30T00:55:58;19.97;;;14.23;;
6513;SDS011;3290;47.716;9.070;2023-08-30T00:58:24;21.50;;;14.63;;
6513;SDS011;3290;47.716;9.070;2023-08-30T01:00:51;21.33;;;15.00;;
6513;SDS011;3290;47.716;9.070;2023-08-30T01:03:17;20.47;;;14.03;;
6513;SDS011;3290;47.716;9.070;2023-08-30T01:05:43;20.43;;;14.37;;
6513;SDS011;3290;47.716;9.070;2023-08-30T01:08:09;24.20;;;14.37;;
6513;SDS011;3290;47.716;9.070;2023-08-30T01:10:38;25.53;;;14.97;;
6513;SDS011;3290;47.716;9.070;2023-08-30T01:13:12;20.00;;;14.90;;
6513;SDS011;3290;47.716;9.070;2023-08-30T01:15:42;21.83;;;14.57;;
6513;SDS011;3290;47.716;9.070;2023-08-30T01:18:08;21.60;;;14.80;;
6513;SDS011;3290;47.716;9.070;2023-08-30T01:20:35;21.60;;;14.33;;
6513;SDS011;3290;47.716;9.070;2023-08-30T01:23:07;20.00;;;14.33;;
6513;SDS011;3290;47.716;9.070;2023-08-30T01:28:42;20.50;;;14.20;;
6513;SDS011;3290;47.716;9.070;2023-08-30T01:31:09;23.37;;;15.40;;
6513;SDS011;3290;47.716;9.070;2023-08-30T01:33:38;22.20;;;15.07;;
6513;SDS011;3290;47.716;9.070;2023-08-30T01:36:04;22.10;;;14.90;;
6513;SDS011;3290;47.716;9.070;2023-08-30T01:38:30;23.23;;;15.37;;
6513;SDS011;3290;47.716;9.070;2023-08-30T01:40:57;25.73;;;15.17;;
6513;SDS011;3290;47.716;9.070;2023-08-30T01:43:25;22.80;;;14.90;;
6513;SDS011;3290;47.716;9.070;2023-08-30T01:45:53;29.17;;;16.17;;
6513;SDS011;3290;47.716;9.070;2023-08-30T01:48:21;26.40;;;15.53;;
6513;SDS011;3290;47.716;9.070;2023-08-30T01:50:47;23.50;;;15.53;;
6513;SDS011;3290;47.716;9.070;2023-08-30T01:53:13;23.30;;;15.80;;
6513;SDS011;3290;47.716;9.070;2023-08-30T01:55:40;21.90;;;14.33;;
6513;SDS011;3290;47.716;9.070;2023-08-30T01:58:06;30.40;;;16.87;;
6513;SDS011;3290;47.716;9.070;2023-08-30T02:00:32;23.13;;;14.40;;
6513;SDS011;3290;47.716;9.070;2023-08-30T02:02:57;27.97;;;15.37;;
6513;SDS011;3290;47.716;9.070;2023-08-30T02:05:23;26.53;;;15.60;;
6513;SDS011;3290;47.716;9.070;2023-08-30T02:07:59;27.33;;;14.10;;
6513;SDS011;3290;47.716;9.070;2023-08-30T02:10:35;21.23;;;13.70;;
6513;SDS011;3290;47.716;9.070;2023-08-30T02:13:03;16.47;;;11.93;;
6513;SDS011;3290;47.716;9.070;2023-08-30T02:15:29;19.80;;;13.50;;
6513;SDS011;3290;47.716;9.070;2023-08-30T02:17:56;17.57;;;12.87;;
6513;SDS011;3290;47.716;9.070;2023-08-30T02:20:22;21.70;;;13.93;;
6513;SDS011;3290;47.716;9.070;2023-08-30T02:22:48;23.30;;;14.10;;
6513;SDS011;3290;47.716;9.070;2023-08-30T02:25:13;26.50;;;14.80;;
6513;SDS011;3290;47.716;9.070;2023-08-30T02:27:39;25.27;;;15.43;;
6513;SDS011;3290;47.716;9.070;2023-08-30T02:30:05;26.23;;;13.53;;
6513;SDS011;3290;47.716;9.070;2023-08-30T02:32:30;19.40;;;13.30;;
6513;SDS011;3290;47.716;9.070;2023-08-30T02:34:56;21.37;;;13.40;;
6513;SDS011;3290;47.716;9.070;2023-08-30T02:37:22;17.90;;;12.23;;
6513;SDS011;3290;47.716;9.070;2023-08-30T02:39:47;24.57;;;13.43;;
6513;SDS011;3290;47.716;9.070;2023-08-30T02:42:13;22.60;;;14.60;;
6513;SDS011;3290;47.716;9.070;2023-08-30T02:44:38;19.37;;;13.17;;
6513;SDS011;3290;47.716;9.070;2023-08-30T02:47:03;20.53;;;13.33;;
6513;SDS011;3290;47.716;9.070;2023-08-30T02:49:29;23.60;;;13.27;;
6513;SDS011;3290;47.716;9.070;2023-08-30T02:51:54;20.50;;;12.70;;
6513;SDS011;3290;47.716;9.070;2023-08-30T02:54:20;16.73;;;11.87;;
6513;SDS011;3290;47.716;9.070;2023-08-30T02:56:47;26.27;;;14.03;;
6513;SDS011;3290;47.716;9.070;2023-08-30T02:59:13;23.40;;;14.43;;
6513;SDS011;3290;47.716;9.070;2023-08-30T03:01:38;19.53;;;13.30;;
6513;SDS011;3290;47.716;9.070;2023-08-30T03:04:07;23.10;;;12.87;;
6513;SDS011;3290;47.716;9.070;2023-08-30T03:06:33;22.00;;;13.17;;
6513;SDS011;3290;47.716;9.070;2023-08-30T03:08:59;23.00;;;13.67;;
6513;SDS011;3290;47.716;9.070;2023-08-30T03:11:24;18.20;;;12.83;;
6513;SDS011;3290;47.716;9.070;2023-08-30T03:13:50;19.20;;;12.80;;
6513;SDS011;3290;47.716;9.070;2023-08-30T03:16:16;21.70;;;12.83;;
6513;SDS011;3290;47.716;9.070;2023-08-30T03:18:42;20.03;;;12.83;;
6513;SDS011;3290;47.716;9.070;2023-08-30T03:21:09;22.67;;;13.20;;
6513;SDS011;3290;47.716;9.070;2023-08-30T03:23:38;18.40;;;12.83;;
6513;SDS011;3290;47.716;9.070;2023-08-30T03:26:21;19.00;;;12.20;;
6513;SDS011;3290;47.716;9.070;2023-08-30T03:28:47;20.03;;;12.63;;
6513;SDS011;3290;47.716;9.070;2023-08-30T03:33:38;19.90;;;11.73;;
6513;SDS011;3290;47.716;9.070;2023-08-30T03:36:03;19.50;;;12.87;;
6513;SDS011;3290;47.716;9.070;2023-08-30T03:38:29;21.40;;;11.25;;
6513;SDS011;3290;47.716;9.070;2023-08-30T03:40:54;17.20;;;12.23;;
6513;SDS011;3290;47.716;9.070;2023-08-30T03:43:20;17.43;;;11.87;;
6513;SDS011;3290;47.716;9.070;2023-08-30T03:45:45;18.73;;;11.70;;
6513;SDS011;3290;47.716;9.070;2023-08-30T03:48:11;20.40;;;10.87;;
6513;SDS011;3290;47.716;9.070;2023-08-30T03:50:36;16.30;;;11.87;;
6513;SDS011;3290;47.716;9.070;2023-08-30T03:53:01;21.40;;;11.37;;
6513;SDS011;3290;47.716;9.070;2023-08-30T03:55:27;14.50;;;11.00;;
6513;SDS011;3290;47.716;9.070;2023-08-30T03:57:52;17.00;;;11.40;;
6513;SDS011;3290;47.716;9.070;2023-08-30T04:00:18;18.23;;;12.33;;
6513;SDS011;3290;47.716;9.070;2023-08-30T04:02:43;18.20;;;12.20;;
6513;SDS011;3290;47.716;9.070;2023-08-30T04:05:09;22.50;;;12.80;;
6513;SDS011;3290;47.716;9.070;2023-08-30T04:07:37;18.00;;;12.23;;
6513;SDS011;3290;47.716;9.070;2023-08-30T04:10:03;18.10;;;12.00;;
6513;SDS011;3290;47.716;9.070;2023-08-30T04:12:32;20.77;;;12.10;;
6513;SDS011;3290;47.716;9.070;2023-08-30T04:14:58;18.97;;;11.47;;
6513;SDS011;3290;47.716;9.070;2023-08-30T04:17:23;22.37;;;13.50;;
6513;SDS011;3290;47.716;9.070;2023-08-30T04:19:52;17.93;;;11.70;;
6513;SDS011;3290;47.716;9.070;2023-08-30T04:22:18;21.43;;;13.77;;
6513;SDS011;3290;47.716;9.070;2023-08-30T04:24:43;20.80;;;11.87;;
6513;SDS011;3290;47.716;9.070;2023-08-30T04:27:09;26.50;;;14.03;;
6513;SDS011;3290;47.716;9.070;2023-08-30T04:29:34;21.33;;;13.17;;
6513;SDS011;3290;47.716;9.070;2023-08-30T04:32:00;23.83;;;12.57;;
6513;SDS011;3290;47.716;9.070;2023-08-30T04:34:25;16.67;;;12.27;;
6513;SDS011;3290;47.716;9.070;2023-08-30T04:36:51;22.60;;;13.10;;
6513;SDS011;3290;47.716;9.070;2023-08-30T04:39:16;21.03;;;12.80;;
6513;SDS011;3290;47.716;9.070;2023-08-30T04:41:41;18.47;;;12.67;;
6513;SDS011;3290;47.716;9.070;2023-08-30T04:44:07;21.40;;;12.47;;
6513;SDS011;3290;47.716;9.070;2023-08-30T04:46:32;22.20;;;13.97;;
6513;SDS011;3290;47.716;9.070;2023-08-30T04:48:58;21.93;;;13.40;;
6513;SDS011;3290;47.716;9.070;2023-08-30T04:51:23;20.50;;;12.57;;
6513;SDS011;3290;47.716;9.070;2023-08-30T04:53:48;23.10;;;13.63;;
6513;SDS011;3290;47.716;9.070;2023-08-30T04:56:14;20.23;;;13.50;;
6513;SDS011;3290;47.716;9.070;2023-08-30T04:58:40;23.60;;;14.83;;
6513;SDS011;3290;47.716;9.070;2023-08-30T05:01:05;19.07;;;13.00;;
6513;SDS011;3290;47.716;9.070;2023-08-30T05:03:32;20.17;;;13.47;;
6513;SDS011;3290;47.716;9.070;2023-08-30T05:05:57;18.60;;;12.73;;
6513;SDS011;3290;47.716;9.070;2023-08-30T05:08:23;24.30;;;14.33;;
6513;SDS011;3290;47.716;9.070;2023-08-30T05:10:48;28.83;;;14.73;;
6513;SDS011;3290;47.716;9.070;2023-08-30T05:13:15;26.73;;;14.13;;
6513;SDS011;3290;47.716;9.070;2023-08-30T05:15:41;22.50;;;14.63;;
6513;SDS011;3290;47.716;9.070;2023-08-30T05:18:06;24.70;;;15.37;;
6513;SDS011;3290;47.716;9.070;2023-08-30T05:20:32;23.57;;;13.70;;
6513;SDS011;3290;47.716;9.070;2023-08-30T05:22:57;22.27;;;13.20;;
6513;SDS011;3290;47.716;9.070;2023-08-30T05:25:23;25.10;;;13.40;;
6513;SDS011;3290;47.716;9.070;2023-08-30T05:27:48;24.93;;;14.50;;
6513;SDS011;3290;47.716;9.070;2023-08-30T05:30:13;25.40;;;15.70;;
6513;SDS011;3290;47.716;9.070;2023-08-30T05:32:39;25.03;;;15.37;;
6513;SDS011;3290;47.716;9.070;2023-08-30T05:35:04;23.37;;;15.20;;
6513;SDS011;3290;47.716;9.070;2023-08-30T05:37:30;24.30;;;14.00;;
6513;SDS011;3290;47.716;9.070;2023-08-30T05:39:56;22.80;;;14.93;;
6513;SDS011;3290;47.716;9.070;2023-08-30T05:42:22;27.23;;;14.70;;
6513;SDS011;3290;47.716;9.070;2023-08-30T05:44:48;29.37;;;16.23;;
6513;SDS011;3290;47.716;9.070;2023-08-30T05:47:13;20.40;;;14.13;;
6513;SDS011;3290;47.716;9.070;2023-08-30T05:49:40;26.30;;;14.30;;
6513;SDS011;3290;47.716;9.070;2023-08-30T05:52:06;26.20;;;14.90;;
6513;SDS011;3290;47.716;9.070;2023-08-30T05:54:31;24.60;;;15.57;;
6513;SDS011;3290;47.716;9.070;2023-08-30T05:56:58;20.80;;;13.37;;
6513;SDS011;3290;47.716;9.070;2023-08-30T05:59:24;24.13;;;14.57;;
6513;SDS011;3290;47.716;9.070;2023-08-30T06:01:49;24.83;;;14.20;;
6513;SDS011;3290;47.716;9.070;2023-08-30T06:04:15;22.90;;;14.47;;
6513;SDS011;3290;47.716;9.070;2023-08-30T06:06:40;27.43;;;14.80;;
6513;SDS011;3290;47.716;9.070;2023-08-30T06:09:05;26.63;;;15.90;;
6513;SDS011;3290;47.716;9.070;2023-08-30T06:11:32;23.17;;;14.60;;
6513;SDS011;3290;47.716;9.070;2023-08-30T06:13:57;26.60;;;14.53;;
6513;SDS011;3290;47.716;9.070;2023-08-30T06:16:24;30.90;;;16.40;;
6513;SDS011;3290;47.716;9.070;2023-08-30T06:18:50;26.50;;;15.63;;
6513;SDS011;3290;47.716;9.070;2023-08-30T06:21:15;24.43;;;15.30;;
6513;SDS011;3290;47.716;9.070;2023-08-30T06:23:41;25.00;;;16.80;;
6513;SDS011;3290;47.716;9.070;2023-08-30T06:26:06;27.63;;;15.43;;
6513;SDS011;3290;47.716;9.070;2023-08-30T06:28:31;28.60;;;15.10;;
6513;SDS011;3290;47.716;9.070;2023-08-30T06:30:57;29.27;;;17.07;;
6513;SDS011;3290;47.716;9.070;2023-08-30T06:33:22;26.40;;;15.03;;
6513;SDS011;3290;47.716;9.070;2023-08-30T06:35:48;27.13;;;15.20;;
6513;SDS011;3290;47.716;9.070;2023-08-30T06:38:15;30.70;;;16.53;;
6513;SDS011;3290;47.716;9.070;2023-08-30T06:40:44;27.63;;;16.83;;
6513;SDS011;3290;47.716;9.070;2023-08-30T06:43:11;25.80;;;17.10;;
6513;SDS011;3290;47.716;9.070;2023-08-30T06:45:38;27.33;;;16.67;;
6513;SDS011;3290;47.716;9.070;2023-08-30T06:48:05;32.67;;;16.10;;
6513;SDS011;3290;47.716;9.070;2023-08-30T06:50:31;24.43;;;15.30;;
6513;SDS011;3290;47.716;9.070;2023-08-30T06:52:57;28.13;;;16.80;;
6513;SDS011;3290;47.716;9.070;2023-08-30T06:55:22;24.60;;;16.10;;
6513;SDS011;3290;47.716;9.070;2023-08-30T06:57:48;22.90;;;15.33;;
6513;SDS011;3290;47.716;9.070;2023-08-30T07:00:16;31.47;;;14.70;;
6513;SDS011;3290;47.716;9.070;2023-08-30T07:02:42;19.40;;;13.90;;
6513;SDS011;3290;47.716;9.070;2023-08-30T07:05:11;25.53;;;14.10;;
6513;SDS011;3290;47.716;9.070;2023-08-30T07:07:37;25.93;;;14.70;;
6513;SDS011;3290;47.716;9.070;2023-08-30T07:10:03;23.13;;;15.00;;
6513;SDS011;3290;47.716;9.070;2023-08-30T07:12:28;25.00;;;13.73;;
6513;SDS011;3290;47.716;9.070;2023-08-30T07:14:54;23.90;;;14.17;;
6513;SDS011;3290;47.716;9.070;2023-08-30T07:17:19;16.60;;;10.73;;
6513;SDS011;3290;47.716;9.070;2023-08-30T07:19:45;17.43;;;10.47;;
6513;SDS011;3290;47.716;9.070;2023-08-30T07:22:10;16.43;;;10.77;;
6513;SDS011;3290;47.716;9.070;2023-08-30T07:24:36;16.30;;;10.47;;
6513;SDS011;3290;47.716;9.070;2023-08-30T07:27:02;12.30;;;8.70;;
6513;SDS011;3290;47.716;9.070;2023-08-30T07:29:27;15.27;;;9.90;;
6513;SDS011;3290;47.716;9.070;2023-08-30T07:31:53;12.20;;;9.67;;
6513;SDS011;3290;47.716;9.070;2023-08-30T07:34:19;11.30;;;8.43;;
6513;SDS011;3290;47.716;9.070;2023-08-30T07:36:45;13.47;;;8.40;;
6513;SDS011;3290;47.716;9.070;2023-08-30T07:39:10;11.57;;;8.43;;
6513;SDS011;3290;47.716;9.070;2023-08-30T07:41:36;12.57;;;9.40;;
6513;SDS011;3290;47.716;9.070;2023-08-30T07:44:01;11.80;;;9.13;;
6513;SDS011;3290;47.716;9.070;2023-08-30T07:46:26;11.10;;;8.60;;
6513;SDS011;3290;47.716;9.070;2023-08-30T07:48:53;14.10;;;8.93;;
6513;SDS011;3290;47.716;9.070;2023-08-30T07:51:19;12.37;;;8.27;;
6513;SDS011;3290;47.716;9.070;2023-08-30T07:53:44;11.93;;;8.00;;
6513;SDS011;3290;47.716;9.070;2023-08-30T07:56:09;11.83;;;8.03;;
6513;SDS011;3290;47.716;9.070;2023-08-30T07:58:35;11.23;;;7.20;;
6513;SDS011;3290;47.716;9.070;2023-08-30T08:01:00;10.20;;;7.77;;
6513;SDS011;3290;47.716;9.070;2023-08-30T08:03:25;9.73;;;8.00;;
6513;SDS011;3290;47.716;9.070;2023-08-30T08:05:51;13.83;;;7.90;;
6513;SDS011;3290;47.716;9.070;2023-08-30T08:08:16;10.23;;;7.63;;
6513;SDS011;3290;47.716;9.070;2023-08-30T08:10:42;12.53;;;9.37;;
6513;SDS011;3290;47.716;9.070;2023-08-30T08:13:08;17.70;;;13.23;;
6513;SDS011;3290;47.716;9.070;2023-08-30T08:15:33;16.63;;;11.20;;
6513;SDS011;3290;47.716;9.070;2023-08-30T08:17:59;16.20;;;11.73;;
6513;SDS011;3290;47.716;9.070;2023-08-30T08:20:25;8.33;;;6.03;;
6513;SDS011;3290;47.716;9.070;2023-08-30T08:22:51;10.10;;;6.57;;
6513;SDS011;3290;47.716;9.070;2023-08-30T08:25:16;9.43;;;6.80;;
6513;SDS011;3290;47.716;9.070;2023-08-30T08:27:42;11.90;;;7.63;;
6513;SDS011;3290;47.716;9.070;2023-08-30T08:30:07;12.13;;;7.73;;
6513;SDS011;3290;47.716;9.070;2023-08-30T08:32:34;9.80;;;6.93;;
6513;SDS011;3290;47.716;9.070;2023-08-30T08:35:00;6.20;;;5.37;;
6513;SDS011;3290;47.716;9.070;2023-08-30T08:37:25;5.70;;;4.57;;
6513;SDS011;3290;47.716;9.070;2023-08-30T08:39:51;5.50;;;4.80;;
6513;SDS011;3290;47.716;9.070;2023-08-30T08:42:17;6.27;;;5.40;;
6513;SDS011;3290;47.716;9.070;2023-08-30T08:44:44;9.47;;;5.67;;
6513;SDS011;3290;47.716;9.070;2023-08-30T08:47:11;7.67;;;5.70;;
6513;SDS011;3290;47.716;9.070;2023-08-30T08:49:37;6.73;;;5.23;;
6513;SDS011;3290;47.716;9.070;2023-08-30T08:52:03;6.50;;;5.40;;
6513;SDS011;3290;47.716;9.070;2023-08-30T08:54:29;7.10;;;5.10;;
6513;SDS011;3290;47.716;9.070;2023-08-30T08:56:55;7.83;;;5.40;;
6513;SDS011;3290;47.716;9.070;2023-08-30T08:59:21;6.23;;;5.23;;
6513;SDS011;3290;47.716;9.070;2023-08-30T09:01:48;6.67;;;5.97;;
6513;SDS011;3290;47.716;9.070;2023-08-30T09:04:14;7.63;;;5.37;;
6513;SDS011;3290;47.716;9.070;2023-08-30T09:06:39;6.80;;;4.83;;
6513;SDS011;3290;47.716;9.070;2023-08-30T09:09:06;5.37;;;4.57;;
6513;SDS011;3290;47.716;9.070;2023-08-30T09:11:33;5.93;;;4.90;;
6513;SDS011;3290;47.716;9.070;2023-08-30T09:13:59;5.67;;;4.60;;
6513;SDS011;3290;47.716;9.070;2023-08-30T09:16:24;5.00;;;4.37;;
6513;SDS011;3290;47.716;9.070;2023-08-30T09:18:57;5.67;;;4.63;;
6513;SDS011;3290;47.716;9.070;2023-08-30T09:21:23;5.40;;;3.70;;
6513;SDS011;3290;47.716;9.070;2023-08-30T09:23:56;4.47;;;4.07;;
6513;SDS011;3290;47.716;9.070;2023-08-30T09:26:29;7.70;;;4.30;;
6513;SDS011;3290;47.716;9.070;2023-08-30T09:29:00;5.50;;;4.20;;
6513;SDS011;3290;47.716;9.070;2023-08-30T09:31:35;5.10;;;3.93;;
6513;SDS011;3290;47.716;9.070;2023-08-30T09:34:02;4.13;;;3.73;;
6513;SDS011;3290;47.716;9.070;2023-08-30T09:36:38;5.13;;;4.17;;
6513;SDS011;3290;47.716;9.070;2023-08-30T09:39:07;5.33;;;4.30;;
6513;SDS011;3290;47.716;9.070;2023-08-30T09:41:33;5.07;;;4.20;;
6513;SDS011;3290;47.716;9.070;2023-08-30T09:43:58;6.70;;;4.70;;
6513;SDS011;3290;47.716;9.070;2023-08-30T09:46:25;4.83;;;4.40;;
6513;SDS011;3290;47.716;9.070;2023-08-30T09:48:50;6.77;;;4.50;;
6513;SDS011;3290;47.716;9.070;2023-08-30T09:51:15;5.03;;;4.00;;
6513;SDS011;3290;47.716;9.070;2023-08-30T09:53:45;5.80;;;5.20;;
6513;SDS011;3290;47.716;9.070;2023-08-30T09:56:14;4.93;;;4.43;;
6513;SDS011;3290;47.716;9.070;2023-08-30T09:58:40;4.40;;;3.60;;
6513;SDS011;3290;47.716;9.070;2023-08-30T10:01:06;6.90;;;4.37;;
6513;SDS011;3290;47.716;9.070;2023-08-30T10:03:32;4.47;;;3.60;;
6513;SDS011;3290;47.716;9.070;2023-08-30T10:05:59;9.60;;;5.10;;
6513;SDS011;3290;47.716;9.070;2023-08-30T10:08:29;3.50;;;3.20;;
6513;SDS011;3290;47.716;9.070;2023-08-30T10:10:57;5.93;;;3.40;;
6513;SDS011;3290;47.716;9.070;2023-08-30T10:13:24;3.00;;;2.80;;
6513;SDS011;3290;47.716;9.070;2023-08-30T10:15:50;3.00;;;2.70;;
6513;SDS011;3290;47.716;9.070;2023-08-30T10:18:20;3.20;;;2.90;;
6513;SDS011;3290;47.716;9.070;2023-08-30T10:20:51;3.53;;;3.23;;
6513;SDS011;3290;47.716;9.070;2023-08-30T10:23:19;3.23;;;2.90;;
6513;SDS011;3290;47.716;9.070;2023-08-30T10:25:46;2.77;;;2.47;;
6513;SDS011;3290;47.716;9.070;2023-08-30T10:28:14;4.50;;;3.07;;
6513;SDS011;3290;47.716;9.070;2023-08-30T10:30:41;5.57;;;4.37;;
6513;SDS011;3290;47.716;9.070;2023-08-30T10:33:13;2.87;;;2.60;;
6513;SDS011;3290;47.716;9.070;2023-08-30T10:35:48;4.30;;;3.30;;
6513;SDS011;3290;47.716;9.070;2023-08-30T10:38:24;8.13;;;5.37;;
6513;SDS011;3290;47.716;9.070;2023-08-30T10:40:51;3.90;;;2.77;;
6513;SDS011;3290;47.716;9.070;2023-08-30T10:43:27;4.50;;;3.07;;
6513;SDS011;3290;47.716;9.070;2023-08-30T10:45:58;7.20;;;2.80;;
6513;SDS011;3290;47.716;9.070;2023-08-30T10:48:39;4.17;;;2.83;;
6513;SDS011;3290;47.716;9.070;2023-08-30T10:51:20;3.97;;;3.10;;
6513;SDS011;3290;47.716;9.070;2023-08-30T10:53:57;2.60;;;2.33;;
6513;SDS011;3290;47.716;9.070;2023-08-30T10:56:29;3.10;;;2.80;;
6513;SDS011;3290;47.716;9.070;2023-08-30T10:58:55;2.77;;;2.57;;
6513;SDS011;3290;47.716;9.070;2023-08-30T11:01:21;2.63;;;2.43;;
6513;SDS011;3290;47.716;9.070;2023-08-30T11:03:48;4.60;;;2.90;;
6513;SDS011;3290;47.716;9.070;2023-08-30T11:06:14;4.43;;;3.47;;
6513;SDS011;3290;47.716;9.070;2023-08-30T11:08:42;3.40;;;3.10;;
6513;SDS011;3290;47.716;9.070;2023-08-30T11:11:09;3.93;;;2.40;;
6513;SDS011;3290;47.716;9.070;2023-08-30T11:13:36;2.70;;;2.50;;
6513;SDS011;3290;47.716;9.070;2023-08-30T11:16:01;3.07;;;2.10;;
6513;SDS011;3290;47.716;9.070;2023-08-30T11:18:30;2.43;;;2.23;;
6513;SDS011;3290;47.716;9.070;2023-08-30T11:21:01;2.10;;;1.90;;
6513;SDS011;3290;47.716;9.070;2023-08-30T11:23:27;4.20;;;2.10;;
6513;SDS011;3290;47.716;9.070;2023-08-30T11:25:53;3.10;;;2.40;;
6513;SDS011;3290;47.716;9.070;2023-08-30T11:28:24;2.27;;;2.07;;
6513;SDS011;3290;47.716;9.070;2023-08-30T11:30:53;4.27;;;2.60;;
6513;SDS011;3290;47.716;9.070;2023-08-30T11:33:18;1.90;;;1.70;;
6513;SDS011;3290;47.716;9.070;2023-08-30T11:35:44;3.70;;;1.80;;
6513;SDS011;3290;47.716;9.070;2023-08-30T11:38:10;1.90;;;1.80;;
6513;SDS011;3290;47.716;9.070;2023-08-30T11:40:36;3.83;;;2.00;;
6513;SDS011;3290;47.716;9.070;2023-08-30T11:43:02;3.20;;;2.10;;
6513;SDS011;3290;47.716;9.070;2023-08-30T11:45:28;3.10;;;2.20;;
6513;SDS011;3290;47.716;9.070;2023-08-30T11:47:57;3.10;;;2.13;;
6513;SDS011;3290;47.716;9.070;2023-08-30T11:50:24;1.87;;;1.77;;
6513;SDS011;3290;47.716;9.070;2023-08-30T11:52:50;2.27;;;1.80;;
6513;SDS011;3290;47.716;9.070;2023-08-30T11:55:15;2.57;;;1.87;;
6513;SDS011;3290;47.716;9.070;2023-08-30T11:57:44;2.77;;;1.70;;
6513;SDS011;3290;47.716;9.070;2023-08-30T12:00:10;3.93;;;1.90;;
6513;SDS011;3290;47.716;9.070;2023-08-30T12:02:37;6.80;;;5.07;;
6513;SDS011;3290;47.716;9.070;2023-08-30T12:05:03;2.00;;;1.80;;
6513;SDS011;3290;47.716;9.070;2023-08-30T12:07:29;3.43;;;1.53;;
6513;SDS011;3290;47.716;9.070;2023-08-30T12:10:05;3.30;;;2.53;;
6513;SDS011;3290;47.716;9.070;2023-08-30T12:12:31;2.30;;;1.47;;
6513;SDS011;3290;47.716;9.070;2023-08-30T12:14:56;3.17;;;1.80;;
6513;SDS011;3290;47.716;9.070;2023-08-30T12:17:22;1.60;;;1.40;;
6513;SDS011;3290;47.716;9.070;2023-08-30T12:19:57;2.63;;;1.43;;
6513;SDS011;3290;47.716;9.070;2023-08-30T12:22:23;4.20;;;2.37;;
6513;SDS011;3290;47.716;9.070;2023-08-30T12:24:48;1.60;;;1.50;;
6513;SDS011;3290;47.716;9.070;2023-08-30T12:27:14;1.37;;;1.27;;
6513;SDS011;3290;47.716;9.070;2023-08-30T12:29:39;1.50;;;1.40;;
6513;SDS011;3290;47.716;9.070;2023-08-30T12:32:05;3.03;;;1.53;;
6513;SDS011;3290;47.716;9.070;2023-08-30T12:34:31;5.43;;;1.80;;
6513;SDS011;3290;47.716;9.070;2023-08-30T12:36:57;2.50;;;1.33;;
6513;SDS011;3290;47.716;9.070;2023-08-30T12:39:22;1.53;;;1.40;;
6513;SDS011;3290;47.716;9.070;2023-08-30T12:41:48;4.10;;;2.00;;
6513;SDS011;3290;47.716;9.070;2023-08-30T12:44:13;1.60;;;1.50;;
6513;SDS011;3290;47.716;9.070;2023-08-30T12:46:38;1.87;;;1.23;;
6513;SDS011;3290;47.716;9.070;2023-08-30T12:49:04;2.03;;;1.40;;
6513;SDS011;3290;47.716;9.070;2023-08-30T12:51:30;1.83;;;1.53;;
6513;SDS011;3290;47.716;9.070;2023-08-30T12:53:55;2.00;;;1.37;;
6513;SDS011;3290;47.716;9.070;2023-08-30T12:56:20;3.37;;;1.40;;
6513;SDS011;3290;47.716;9.070;2023-08-30T12:58:46;1.40;;;1.23;;
6513;SDS011;3290;47.716;9.070;2023-08-30T13:01:11;2.07;;;1.50;;
6513;SDS011;3290;47.716;9.070;2023-08-30T13:03:37;1.50;;;1.40;;
6513;SDS011;3290;47.716;9.070;2023-08-30T13:06:02;1.50;;;1.40;;
6513;SDS011;3290;47.716;9.070;2023-08-30T13:08:29;1.73;;;1.50;;
6513;SDS011;3290;47.716;9.070;2023-08-30T13:10:54;2.00;;;1.40;;
6513;SDS011;3290;47.716;9.070;2023-08-30T13:13:20;3.13;;;1.60;;
6513;SDS011;3290;47.716;9.070;2023-08-30T13:15:46;1.90;;;1.60;;
6513;SDS011;3290;47.716;9.070;2023-08-30T13:18:13;1.70;;;1.60;;
6513;SDS011;3290;47.716;9.070;2023-08-30T13:20:40;1.83;;;1.50;;
6513;SDS011;3290;47.716;9.070;2023-08-30T13:23:07;2.33;;;1.50;;
6513;SDS011;3290;47.716;9.070;2023-08-30T13:25:32;1.60;;;1.50;;
6513;SDS011;3290;47.716;9.070;2023-08-30T13:27:58;2.90;;;1.63;;
6513;SDS011;3290;47.716;9.070;2023-08-30T13:30:23;1.80;;;1.53;;
6513;SDS011;3290;47.716;9.070;2023-08-30T13:32:48;2.77;;;1.67;;
6513;SDS011;3290;47.716;9.070;2023-08-30T13:35:14;3.13;;;2.10;;
6513;SDS011;3290;47.716;9.070;2023-08-30T13:37:39;5.77;;;1.73;;
6513;SDS011;3290;47.716;9.070;2023-08-30T13:40:04;2.10;;;1.90;;
6513;SDS011;3290;47.716;9.070;2023-08-30T13:42:31;3.03;;;1.80;;
6513;SDS011;3290;47.716;9.070;2023-08-30T13:44:58;2.50;;;1.70;;
6513;SDS011;3290;47.716;9.070;2023-08-30T13:47:23;1.93;;;1.60;;
6513;SDS011;3290;47.716;9.070;2023-08-30T13:49:48;1.97;;;1.87;;
6513;SDS011;3290;47.716;9.070;2023-08-30T13:52:14;1.60;;;1.50;;
6513;SDS011;3290;47.716;9.070;2023-08-30T13:54:40;2.93;;;1.47;;
6513;SDS011;3290;47.716;9.070;2023-08-30T13:57:05;1.90;;;1.27;;
6513;SDS011;3290;47.716;9.070;2023-08-30T13:59:30;2.30;;;1.63;;
6513;SDS011;3290;47.716;9.070;2023-08-30T14:01:56;1.67;;;1.40;;
6513;SDS011;3290;47.716;9.070;2023-08-30T14:04:23;1.50;;;1.40;;
6513;SDS011;3290;47.716;9.070;2023-08-30T14:06:50;4.00;;;1.73;;
6513;SDS011;3290;47.716;9.070;2023-08-30T14:09:15;3.00;;;1.60;;
6513;SDS011;3290;47.716;9.070;2023-08-30T14:11:41;4.00;;;1.50;;
6513;SDS011;3290;47.716;9.070;2023-08-30T14:14:06;2.60;;;1.70;;
6513;SDS011;3290;47.716;9.070;2023-08-30T14:16:32;1.47;;;1.37;;
6513;SDS011;3290;47.716;9.070;2023-08-30T14:18:57;4.33;;;1.50;;
6513;SDS011;3290;47.716;9.070;2023-08-30T14:21:30;3.30;;;1.40;;
6513;SDS011;3290;47.716;9.070;2023-08-30T14:23:55;2.07;;;1.50;;
6513;SDS011;3290;47.716;9.070;2023-08-30T14:26:20;1.80;;;1.40;;
6513;SDS011;3290;47.716;9.070;2023-08-30T14:28:46;3.17;;;1.67;;
6513;SDS011;3290;47.716;9.070;2023-08-30T14:31:11;11.63;;;1.77;;
6513;SDS011;3290;47.716;9.070;2023-08-30T14:33:37;3.93;;;1.57;;
6513;SDS011;3290;47.716;9.070;2023-08-30T14:36:03;1.93;;;1.67;;
6513;SDS011;3290;47.716;9.070;2023-08-30T14:38:33;3.10;;;1.50;;
6513;SDS011;3290;47.716;9.070;2023-08-30T14:40:59;4.30;;;1.80;;
6513;SDS011;3290;47.716;9.070;2023-08-30T14:43:25;1.70;;;1.53;;
6513;SDS011;3290;47.716;9.070;2023-08-30T14:45:51;1.73;;;1.63;;
6513;SDS011;3290;47.716;9.070;2023-08-30T14:48:24;2.27;;;1.90;;
6513;SDS011;3290;47.716;9.070;2023-08-30T14:50:52;3.30;;;2.00;;
6513;SDS011;3290;47.716;9.070;2023-08-30T14:53:18;2.37;;;2.10;;
6513;SDS011;3290;47.716;9.070;2023-08-30T14:55:46;2.20;;;1.97;;
6513;SDS011;3290;47.716;9.070;2023-08-30T14:58:15;2.10;;;1.67;;
6513;SDS011;3290;47.716;9.070;2023-08-30T15:00:40;2.90;;;1.67;;